createdAt,value
2022-11-19T00:03:04.172Z,48.60
2022-11-19T00:06:33.033Z,44.80
2022-11-19T00:10:01.957Z,40.30
2022-11-19T00:13:29.394Z,37.10
2022-11-19T00:16:59.081Z,43.70
2022-11-19T00:20:27.810Z,34.90
2022-11-19T00:24:01.736Z,32.80
2022-11-19T00:27:32.046Z,32.80
2022-11-19T00:31:04.243Z,28.20
2022-11-19T00:34:58.532Z,25.70
2022-11-19T00:38:25.695Z,26.30
2022-11-19T00:41:52.319Z,29.10
2022-11-19T00:45:19.211Z,45.00
2022-11-19T00:48:47.598Z,63.10
2022-11-19T00:52:14.660Z,66.90
2022-11-19T00:55:41.879Z,60.60
2022-11-19T00:59:08.464Z,61.60
2022-11-19T01:02:36.321Z,75.50
2022-11-19T01:06:08.369Z,85.10
2022-11-19T01:09:59.276Z,77.60
2022-11-19T01:13:36.572Z,69.70
2022-11-19T01:17:03.376Z,71.20
2022-11-19T01:20:30.037Z,77.80
2022-11-19T01:24:05.846Z,79.20
2022-11-19T01:27:36.699Z,78.00
2022-11-19T01:31:16.751Z,76.90
2022-11-19T01:34:44.423Z,78.70
2022-11-19T01:38:21.551Z,66.80
2022-11-19T01:41:51.754Z,72.80
2022-11-19T01:45:31.151Z,72.50
2022-11-19T01:49:04.157Z,68.60
2022-11-19T01:52:30.920Z,74.30
2022-11-19T01:56:04.164Z,77.80
2022-11-19T01:59:32.716Z,75.30
2022-11-19T02:03:01.224Z,66.50
2022-11-19T02:06:28.179Z,65.90
2022-11-19T02:09:55.138Z,73.80
2022-11-19T02:13:27.072Z,67.80
2022-11-19T02:17:05.662Z,70.10
2022-11-19T02:20:55.986Z,70.80
2022-11-19T02:24:43.203Z,82.10
2022-11-19T02:28:30.628Z,74.90
2022-11-19T02:32:02.716Z,86.00
2022-11-19T02:35:38.968Z,86.30
2022-11-19T02:39:10.636Z,94.80
2022-11-19T02:42:45.182Z,83.60
2022-11-19T02:46:16.044Z,80.30
2022-11-19T02:49:46.003Z,78.50
2022-11-19T02:53:13.359Z,75.00
2022-11-19T02:56:53.222Z,79.70
2022-11-19T03:00:38.087Z,76.10
2022-11-19T03:04:22.435Z,80.10
2022-11-19T03:07:50.869Z,95.10
2022-11-19T03:11:23.755Z,109.50
2022-11-19T03:15:15.886Z,101.00
2022-11-19T03:18:47.908Z,111.30
2022-11-19T03:22:20.967Z,110.00
2022-11-19T03:25:51.828Z,107.30
2022-11-19T03:29:19.354Z,89.80
2022-11-19T03:32:51.691Z,87.20
2022-11-19T03:36:23.249Z,69.80
2022-11-19T03:39:51.452Z,76.90
2022-11-19T03:43:22.702Z,60.40
2022-11-19T03:46:54.008Z,67.80
2022-11-19T03:50:26.574Z,72.60
2022-11-19T03:53:54.881Z,59.80
2022-11-19T03:57:24.881Z,59.20
2022-11-19T04:00:51.357Z,52.70
2022-11-19T04:04:35.808Z,52.40
2022-11-19T04:08:02.703Z,48.90
2022-11-19T04:11:29.100Z,44.30
2022-11-19T04:14:56.083Z,41.10
2022-11-19T04:18:22.728Z,40.50
2022-11-19T04:21:49.555Z,46.30
2022-11-19T04:25:17.087Z,43.70
2022-11-19T04:28:43.643Z,45.10
2022-11-19T04:32:10.542Z,56.40
2022-11-19T04:35:37.342Z,50.60
2022-11-19T04:39:03.801Z,51.00
2022-11-19T04:42:30.445Z,58.30
2022-11-19T04:45:57.559Z,56.40
2022-11-19T04:49:24.378Z,59.70
2022-11-19T04:52:50.971Z,57.70
2022-11-19T04:56:17.972Z,53.90
2022-11-19T04:59:44.340Z,53.80
2022-11-19T05:03:11.372Z,56.00
2022-11-19T05:06:38.466Z,52.60
2022-11-19T05:10:05.768Z,51.10
2022-11-19T05:13:32.934Z,50.30
2022-11-19T05:16:59.887Z,50.00
2022-11-19T05:20:26.539Z,49.40
2022-11-19T05:23:53.473Z,45.40
2022-11-19T05:27:20.297Z,45.90
2022-11-19T05:30:46.885Z,42.40
2022-11-19T05:34:13.862Z,45.10
2022-11-19T05:37:41.001Z,40.80
2022-11-19T05:41:07.739Z,40.70
2022-11-19T05:44:34.431Z,37.40
2022-11-19T05:48:01.361Z,39.00
2022-11-19T05:51:28.167Z,36.10
2022-11-19T05:54:54.839Z,45.00
2022-11-19T05:58:21.532Z,43.70
2022-11-19T06:01:48.322Z,35.20
2022-11-19T06:05:15.400Z,38.50
2022-11-19T06:08:41.848Z,41.00
2022-11-19T06:12:08.968Z,32.50
2022-11-19T06:15:35.694Z,39.40
2022-11-19T06:19:02.007Z,48.20
2022-11-19T06:22:28.824Z,41.10
2022-11-19T06:25:57.221Z,43.20
2022-11-19T06:29:24.373Z,41.90
2022-11-19T06:32:50.883Z,45.70
2022-11-19T06:36:17.884Z,38.80
2022-11-19T06:39:44.355Z,47.50
2022-11-19T06:43:11.056Z,41.00
2022-11-19T06:46:38.694Z,50.30
2022-11-19T06:50:06.334Z,49.80
2022-11-19T06:53:33.233Z,49.10
2022-11-19T06:57:00.860Z,61.20
2022-11-19T07:00:28.023Z,49.50
2022-11-19T07:03:54.925Z,43.40
2022-11-19T07:07:24.524Z,38.00
2022-11-19T07:10:51.700Z,40.30
2022-11-19T07:14:18.558Z,41.00
2022-11-19T07:17:44.927Z,48.30
2022-11-19T07:21:11.747Z,45.10
2022-11-19T07:24:38.533Z,44.50
2022-11-19T07:28:05.436Z,36.90
2022-11-19T07:31:35.228Z,40.60
2022-11-19T07:35:02.210Z,39.60
2022-11-19T07:38:34.125Z,45.50
2022-11-19T07:42:21.824Z,43.70
2022-11-19T07:45:52.047Z,38.30
2022-11-19T07:49:19.148Z,42.10
2022-11-19T07:52:47.743Z,36.30
2022-11-19T07:56:14.480Z,39.30
2022-11-19T07:59:41.483Z,38.60
2022-11-19T08:03:08.744Z,38.30
2022-11-19T08:06:37.535Z,33.90
2022-11-19T08:10:07.160Z,38.30
2022-11-19T08:13:34.358Z,39.30
2022-11-19T08:17:18.427Z,41.20
2022-11-19T08:20:51.840Z,48.50
2022-11-19T08:24:21.258Z,51.20
2022-11-19T08:27:47.923Z,48.50
2022-11-19T08:31:22.760Z,77.60
2022-11-19T08:34:49.528Z,63.80
2022-11-19T08:38:16.275Z,73.60
2022-11-19T08:42:00.414Z,41.30
2022-11-19T08:45:27.239Z,64.00
2022-11-19T08:48:54.104Z,103.40
2022-11-19T08:52:21.059Z,54.00
2022-11-19T08:55:56.452Z,55.20
2022-11-19T08:59:23.553Z,72.70
2022-11-19T09:02:50.196Z,70.60
2022-11-19T09:06:17.867Z,72.30
2022-11-19T09:09:44.503Z,57.30
2022-11-19T09:13:11.530Z,68.20
2022-11-19T09:16:38.215Z,69.00
2022-11-19T09:20:05.430Z,54.10
2022-11-19T09:23:32.520Z,54.80
2022-11-19T09:27:02.254Z,73.00
2022-11-19T09:30:31.144Z,46.40
2022-11-19T09:33:57.886Z,54.10
2022-11-19T09:37:24.426Z,62.80
2022-11-19T09:40:55.010Z,44.50
2022-11-19T09:44:45.325Z,45.30
2022-11-19T09:48:33.571Z,66.40
2022-11-19T09:52:07.223Z,68.20
2022-11-19T09:59:09.040Z,78.90
2022-11-19T10:02:36.391Z,57.20
2022-11-19T10:06:24.177Z,49.50
2022-11-19T10:10:04.433Z,33.40
2022-11-19T10:13:47.078Z,58.10
2022-11-19T10:17:28.025Z,48.30
2022-11-19T10:21:01.338Z,41.60
2022-11-19T10:24:43.627Z,50.60
2022-11-19T10:28:17.548Z,31.60
2022-11-19T10:31:47.683Z,35.20
2022-11-19T10:35:21.644Z,33.10
2022-11-19T10:38:55.310Z,42.30
2022-11-19T10:42:26.944Z,37.60
2022-11-19T10:45:55.200Z,35.00
2022-11-19T10:49:22.080Z,42.70
2022-11-19T10:52:53.319Z,35.10
2022-11-19T10:56:23.980Z,31.20
2022-11-19T10:59:52.075Z,36.50
2022-11-19T11:03:26.258Z,31.40
2022-11-19T11:06:58.617Z,34.20
2022-11-19T11:10:42.968Z,30.30
2022-11-19T11:14:32.627Z,29.50
2022-11-19T11:18:07.684Z,36.00
2022-11-19T11:21:38.506Z,31.80
2022-11-19T11:25:14.918Z,33.40
2022-11-19T11:28:58.437Z,33.20
2022-11-19T11:32:32.854Z,33.20
2022-11-19T11:36:02.894Z,28.40
2022-11-19T11:39:34.238Z,45.10
2022-11-19T11:43:01.465Z,39.60
2022-11-19T11:46:35.313Z,47.80
2022-11-19T11:50:10.101Z,58.50
2022-11-19T11:53:38.325Z,64.20
2022-11-19T11:57:19.680Z,73.70
2022-11-19T12:00:47.793Z,56.70
2022-11-19T12:04:16.326Z,64.40
2022-11-19T12:08:05.495Z,75.00
2022-11-19T12:11:57.784Z,65.30
2022-11-19T12:15:34.839Z,75.00
2022-11-19T12:19:17.338Z,70.10
2022-11-19T12:22:57.992Z,63.20
2022-11-19T12:26:35.324Z,36.90
2022-11-19T12:30:07.321Z,45.40
2022-11-19T12:33:54.172Z,39.80
2022-11-19T12:37:39.252Z,44.70
2022-11-19T12:41:20.550Z,52.30
2022-11-19T12:45:00.523Z,51.40
2022-11-19T12:48:44.248Z,46.10
2022-11-19T12:52:38.901Z,39.50
2022-11-19T12:59:51.224Z,48.00
2022-11-19T13:03:21.732Z,48.20
2022-11-19T13:06:56.423Z,39.30
2022-11-19T13:10:27.579Z,24.20
2022-11-19T13:14:00.170Z,31.70
2022-11-19T13:17:31.690Z,37.20
2022-11-19T13:21:03.224Z,38.10
2022-11-19T13:24:35.268Z,58.90
2022-11-19T13:28:13.881Z,34.50
2022-11-19T13:31:54.497Z,25.10
2022-11-19T13:35:29.254Z,25.90
2022-11-19T13:39:00.643Z,44.40
2022-11-19T13:42:58.956Z,31.70
2022-11-19T13:46:40.944Z,95.10
2022-11-19T13:50:16.342Z,57.50
2022-11-19T13:53:46.652Z,73.20
2022-11-19T13:57:30.473Z,43.20
2022-11-19T14:01:21.776Z,46.80
2022-11-19T14:08:48.336Z,64.60
2022-11-19T14:12:50.999Z,75.00
2022-11-19T14:16:51.857Z,70.90
2022-11-19T14:21:02.637Z,49.60
2022-11-19T14:25:17.218Z,127.10
2022-11-19T14:28:49.382Z,96.30
2022-11-19T14:32:30.955Z,120.90
2022-11-19T14:35:59.121Z,84.70
2022-11-19T14:39:31.030Z,70.20
2022-11-19T14:43:47.705Z,70.60
2022-11-19T14:47:38.965Z,49.20
2022-11-19T14:51:12.176Z,47.30
2022-11-19T14:54:48.008Z,46.20
2022-11-19T14:58:23.298Z,42.90
2022-11-19T15:02:03.416Z,43.90
2022-11-19T15:05:34.812Z,42.70
2022-11-19T15:09:02.460Z,43.10
2022-11-19T15:12:47.433Z,71.00
2022-11-19T15:16:17.251Z,94.60
2022-11-19T15:19:52.374Z,69.20
2022-11-19T15:23:26.152Z,97.80
2022-11-19T15:30:29.400Z,93.20
2022-11-19T15:34:38.542Z,59.90
2022-11-19T15:38:29.939Z,111.60
2022-11-19T15:42:04.232Z,96.70
2022-11-19T15:45:38.901Z,61.60
2022-11-19T15:49:14.410Z,59.90
2022-11-19T15:52:41.460Z,54.30
2022-11-19T15:56:16.218Z,75.50
2022-11-19T15:59:47.955Z,58.60
2022-11-19T16:03:16.043Z,66.50
2022-11-19T16:06:48.534Z,70.20
2022-11-19T16:10:18.441Z,57.40
2022-11-19T16:14:10.899Z,65.20
2022-11-19T16:17:44.632Z,62.80
2022-11-19T16:21:15.523Z,54.50
2022-11-19T16:25:00.233Z,53.00
2022-11-19T16:28:31.710Z,56.10
2022-11-19T16:32:02.939Z,52.60
2022-11-19T16:35:34.737Z,45.40
2022-11-19T16:39:01.883Z,54.30
2022-11-19T16:42:31.237Z,55.20
2022-11-19T16:46:02.625Z,60.00
2022-11-19T16:49:43.342Z,63.00
2022-11-19T16:53:11.036Z,53.20
2022-11-19T16:56:47.193Z,58.20
2022-11-19T17:00:21.696Z,67.80
2022-11-19T17:03:58.805Z,84.40
2022-11-19T17:07:36.583Z,64.10
2022-11-19T17:11:41.859Z,75.30
2022-11-19T17:15:41.188Z,72.60
2022-11-19T17:19:21.764Z,78.00
2022-11-19T17:22:53.961Z,78.60
2022-11-19T17:26:31.738Z,58.70
2022-11-19T17:30:09.609Z,58.60
2022-11-19T17:34:01.940Z,62.30
2022-11-19T17:37:31.547Z,61.20
2022-11-19T17:41:08.308Z,51.60
2022-11-19T17:44:42.014Z,56.50
2022-11-19T17:48:21.855Z,54.80
2022-11-19T17:51:56.075Z,45.30
2022-11-19T17:55:30.068Z,58.10
2022-11-19T17:58:59.972Z,57.10
2022-11-19T18:02:31.894Z,53.40
2022-11-19T18:06:03.596Z,49.80
2022-11-19T18:09:34.944Z,52.20
2022-11-19T18:13:03.980Z,53.70
2022-11-19T18:16:38.489Z,55.50
2022-11-19T18:20:20.409Z,56.50
2022-11-19T18:24:04.545Z,49.40
2022-11-19T18:27:38.917Z,53.30
2022-11-19T18:31:22.885Z,53.00
2022-11-19T18:34:50.518Z,48.70
2022-11-19T18:38:32.307Z,46.40
2022-11-19T18:42:00.824Z,40.90
2022-11-19T18:45:30.905Z,45.50
2022-11-19T18:49:06.454Z,46.30
2022-11-19T18:52:47.355Z,45.20
2022-11-19T18:56:21.531Z,46.70
2022-11-19T18:59:51.461Z,60.40
2022-11-19T19:03:23.474Z,60.20
2022-11-19T19:06:57.909Z,64.80
2022-11-19T19:10:26.040Z,63.00
2022-11-19T19:13:56.225Z,55.70
2022-11-19T19:17:27.614Z,69.00
2022-11-19T19:20:56.591Z,70.70
2022-11-19T19:24:27.126Z,66.50
2022-11-19T19:27:57.217Z,74.10
2022-11-19T19:31:27.657Z,61.80
2022-11-19T19:34:57.196Z,56.80
2022-11-19T19:38:24.891Z,62.00
2022-11-19T19:41:54.997Z,52.90
2022-11-19T19:45:25.437Z,56.40
2022-11-19T19:48:55.912Z,50.10
2022-11-19T19:52:23.042Z,52.60
2022-11-19T19:55:54.764Z,53.10
2022-11-19T19:59:22.019Z,62.10
2022-11-19T20:02:54.361Z,64.40
2022-11-19T20:06:27.220Z,142.10
2022-11-19T20:09:55.162Z,78.00
2022-11-19T20:13:34.306Z,70.70
2022-11-19T20:17:06.264Z,55.20
2022-11-19T20:20:36.927Z,65.30
2022-11-19T20:24:13.101Z,69.30
2022-11-19T20:27:52.072Z,100.40
2022-11-19T20:31:25.223Z,88.50
2022-11-19T20:34:58.808Z,86.30
2022-11-19T20:38:44.452Z,92.70
2022-11-19T20:42:29.600Z,85.10
2022-11-19T20:46:16.916Z,89.20
2022-11-19T20:49:53.467Z,83.40
2022-11-19T20:53:25.746Z,75.20
2022-11-19T20:57:03.197Z,81.20
2022-11-19T21:01:03.340Z,69.20
2022-11-19T21:04:39.295Z,78.70
2022-11-19T21:11:39.721Z,81.40
2022-11-19T21:15:12.072Z,67.40
2022-11-19T21:18:45.015Z,67.70
2022-11-19T21:22:15.711Z,64.10
2022-11-19T21:25:43.747Z,63.50
2022-11-19T21:29:13.372Z,70.80
2022-11-19T21:32:45.858Z,58.90
2022-11-19T21:36:20.626Z,53.60
2022-11-19T21:39:48.024Z,52.20
2022-11-19T21:43:17.343Z,55.90
2022-11-19T21:46:44.814Z,56.40
2022-11-19T21:50:13.008Z,62.60
2022-11-19T21:53:42.503Z,63.30
2022-11-19T21:57:19.185Z,70.60
2022-11-19T22:00:49.980Z,66.60
2022-11-19T22:04:19.052Z,74.80
2022-11-19T22:07:50.367Z,62.20
2022-11-19T22:11:35.104Z,64.70
2022-11-19T22:15:12.123Z,64.10
2022-11-19T22:18:43.929Z,63.00
2022-11-19T22:22:17.528Z,57.70
2022-11-19T22:25:50.358Z,69.80
2022-11-19T22:29:22.022Z,73.20
2022-11-19T22:32:54.602Z,80.20
2022-11-19T22:36:26.611Z,72.70
2022-11-19T22:39:58.500Z,57.00
2022-11-19T22:43:42.561Z,64.20
2022-11-19T22:47:11.939Z,62.80
2022-11-19T22:50:44.356Z,57.30
2022-11-19T22:54:16.640Z,60.10
2022-11-19T22:57:46.147Z,131.90
2022-11-19T23:01:20.005Z,134.70
2022-11-19T23:04:47.033Z,99.10
2022-11-19T23:08:14.650Z,125.40
2022-11-19T23:11:59.135Z,84.70
2022-11-19T23:15:28.469Z,66.20
2022-11-19T23:18:55.794Z,68.50
2022-11-19T23:22:25.062Z,69.00
2022-11-19T23:25:56.946Z,66.10
2022-11-19T23:29:24.285Z,71.70
2022-11-19T23:32:56.093Z,76.20
2022-11-19T23:36:28.118Z,89.60
2022-11-19T23:39:56.181Z,67.50
2022-11-19T23:43:22.640Z,68.90
2022-11-19T23:46:49.804Z,74.20
2022-11-19T23:50:19.560Z,79.00
2022-11-19T23:53:46.618Z,66.60
2022-11-19T23:57:13.894Z,68.90
